Summit, South Carolina
Current Conditions -  °F | °C
As of 6:56 PM on Sunday 25 Jan 2015 (Local Time) from KCAE Reporting Station
Clear Clear  
Wind Chill: 53°   Ceiling: Unl
Heat Index: 53°   Visibility: 10mi
Dew Point: 32°   Wind: 3mph
Humidity: 45%   Direction: 190°S
Pressure: 29.82"   Gusts: NA
Location:  33.8822°N, 81.433°W
Report Text: KCAE 252356Z 19003KT 10SM CLR 12/00 A2982 RMK AO2 SLP097 T01170000 10167 20111 53004 $
Loading
Personal Weather Stations






























Interactive Weather Map New forecast layout! Learn more

10-Day Weather Forecast

Advertisements
Track Severe Weather on mobile